createdAt,value
2018-09-04T00:00:51.224Z,80.80
2018-09-04T00:03:21.095Z,80.80
2018-09-04T00:05:50.883Z,81.00
2018-09-04T00:08:25.941Z,80.60
2018-09-04T00:10:55.752Z,80.60
2018-09-04T00:13:25.467Z,80.70
2018-09-04T00:15:55.569Z,80.70
2018-09-04T00:18:25.309Z,80.70
2018-09-04T00:20:55.071Z,80.80
2018-09-04T00:23:24.827Z,80.80
2018-09-04T00:25:54.547Z,80.80
2018-09-04T00:28:24.306Z,80.70
2018-09-04T00:30:54.046Z,80.70
2018-09-04T00:33:23.819Z,80.70
2018-09-04T00:35:53.635Z,80.70
2018-09-04T00:38:23.371Z,80.80
2018-09-04T00:40:53.170Z,80.60
2018-09-04T00:43:23.505Z,80.80
2018-09-04T00:45:53.306Z,80.90
2018-09-04T00:48:23.059Z,81.00
2018-09-04T00:50:52.886Z,81.20
2018-09-04T00:53:22.649Z,81.30
2018-09-04T00:55:52.434Z,81.30
2018-09-04T00:58:22.236Z,81.30
2018-09-04T01:00:52.059Z,81.40
2018-09-04T01:03:21.786Z,81.50
2018-09-04T01:05:51.575Z,81.50
2018-09-04T01:08:21.338Z,81.60
2018-09-04T01:10:51.132Z,81.70
2018-09-04T01:13:20.886Z,81.80
2018-09-04T01:15:50.550Z,81.80
2018-09-04T01:18:20.273Z,82.00
2018-09-04T01:20:50.011Z,82.00
2018-09-04T01:23:19.715Z,82.10
2018-09-04T01:25:49.409Z,82.30
2018-09-04T01:28:19.207Z,82.20
2018-09-04T01:30:48.951Z,82.10
2018-09-04T01:33:18.711Z,82.30
2018-09-04T01:35:48.470Z,82.60
2018-09-04T01:38:18.177Z,82.80
2018-09-04T01:40:47.826Z,82.70
2018-09-04T01:43:17.557Z,82.70
2018-09-04T01:45:47.301Z,82.90
2018-09-04T01:48:17.031Z,82.90
2018-09-04T01:50:46.717Z,82.80
2018-09-04T01:53:16.733Z,82.90
2018-09-04T01:55:46.488Z,83.10
2018-09-04T01:58:16.346Z,83.00
2018-09-04T02:00:46.131Z,83.10
2018-09-04T02:03:15.897Z,83.10
2018-09-04T02:05:45.671Z,83.30
2018-09-04T02:08:15.435Z,83.30
2018-09-04T02:10:45.179Z,83.40
2018-09-04T02:13:15.026Z,83.60
2018-09-04T02:15:44.796Z,84.00
2018-09-04T02:18:14.606Z,84.00
2018-09-04T02:20:44.391Z,85.00
2018-09-04T02:23:38.783Z,84.00
2018-09-04T02:26:08.477Z,84.20
2018-09-04T02:28:38.454Z,84.20
2018-09-04T02:31:08.146Z,84.00
2018-09-04T02:33:37.868Z,84.00
2018-09-04T02:36:07.619Z,84.80
2018-09-04T02:38:37.359Z,84.40
2018-09-04T02:41:07.770Z,84.40
2018-09-04T02:43:37.574Z,84.30
2018-09-04T02:46:07.374Z,84.40
2018-09-04T02:48:37.125Z,84.50
2018-09-04T02:51:07.286Z,84.50
2018-09-04T02:53:37.157Z,84.60
2018-09-04T02:56:06.909Z,85.50
2018-09-04T02:58:36.711Z,84.60
2018-09-04T03:01:06.527Z,84.70
2018-09-04T03:03:36.257Z,84.70
2018-09-04T03:06:06.138Z,84.80
2018-09-04T03:08:35.910Z,85.50
2018-09-04T03:11:05.612Z,85.00
2018-09-04T03:13:35.433Z,85.10
2018-09-04T03:16:05.214Z,85.30
2018-09-04T03:18:34.967Z,85.40
2018-09-04T03:21:04.742Z,85.60
2018-09-04T03:23:34.485Z,85.50
2018-09-04T03:26:04.227Z,86.40
2018-09-04T03:28:34.262Z,85.70
2018-09-04T03:31:04.062Z,85.80
2018-09-04T03:33:34.147Z,85.90
2018-09-04T03:36:03.847Z,86.60
2018-09-04T03:38:33.611Z,86.10
2018-09-04T03:41:03.347Z,86.20
2018-09-04T03:43:33.087Z,86.20
2018-09-04T03:46:02.864Z,86.10
2018-09-04T03:48:32.661Z,86.40
2018-09-04T03:51:02.431Z,86.40
2018-09-04T03:53:32.246Z,86.70
2018-09-04T03:56:02.028Z,86.70
2018-09-04T03:58:32.100Z,86.80
2018-09-04T04:01:01.809Z,86.90
2018-09-04T04:03:31.590Z,86.80
2018-09-04T04:06:01.322Z,87.00
2018-09-04T04:08:31.092Z,86.60
2018-09-04T04:11:00.887Z,87.10
2018-09-04T04:13:30.658Z,87.10
2018-09-04T04:16:00.401Z,87.10
2018-09-04T04:18:30.102Z,87.20
2018-09-04T04:21:00.821Z,87.20
2018-09-04T04:23:31.251Z,87.30
2018-09-04T04:26:02.445Z,87.30
2018-09-04T04:28:32.374Z,87.30
2018-09-04T04:31:02.055Z,87.40
2018-09-04T04:33:31.803Z,87.50
2018-09-04T04:36:01.590Z,87.70
2018-09-04T04:38:31.367Z,87.70
2018-09-04T04:41:01.104Z,87.90
2018-09-04T04:43:30.929Z,87.90
2018-09-04T04:46:00.696Z,87.70
2018-09-04T04:48:30.448Z,87.80
2018-09-04T04:51:00.289Z,87.90
2018-09-04T04:53:30.081Z,87.70
2018-09-04T04:55:59.850Z,87.80
2018-09-04T04:58:29.610Z,87.80
2018-09-04T05:00:59.673Z,87.80
2018-09-04T05:03:29.440Z,87.90
2018-09-04T05:05:59.182Z,88.00
2018-09-04T05:08:29.122Z,88.00
2018-09-04T05:10:59.020Z,88.10
2018-09-04T05:13:28.795Z,88.20
2018-09-04T05:15:58.522Z,88.00
2018-09-04T05:18:28.265Z,88.00
2018-09-04T05:20:58.137Z,88.10
2018-09-04T05:23:33.889Z,88.10
2018-09-04T05:26:03.690Z,88.10
2018-09-04T05:28:33.670Z,88.10
2018-09-04T05:31:03.486Z,88.20
2018-09-04T05:33:36.921Z,88.40
2018-09-04T05:36:07.106Z,88.50
2018-09-04T05:38:37.270Z,88.20
2018-09-04T05:41:07.360Z,88.40
2018-09-04T05:43:42.177Z,88.40
2018-09-04T05:46:15.372Z,88.40
2018-09-04T05:48:45.137Z,88.50
2018-09-04T05:51:14.837Z,88.60
2018-09-04T05:53:44.652Z,88.60
2018-09-04T05:56:14.486Z,88.60
2018-09-04T05:58:44.262Z,88.60
2018-09-04T06:01:14.008Z,89.40
2018-09-04T06:03:43.777Z,88.80
2018-09-04T06:06:13.517Z,89.00
2018-09-04T06:08:43.197Z,89.10
2018-09-04T06:11:12.962Z,89.20
2018-09-04T06:13:42.800Z,89.40
2018-09-04T06:16:12.524Z,89.40
2018-09-04T06:18:42.204Z,89.60
2018-09-04T06:21:11.996Z,89.70
2018-09-04T06:23:41.778Z,89.80
2018-09-04T06:26:11.519Z,90.00
2018-09-04T06:28:41.444Z,90.00
2018-09-04T06:31:11.200Z,90.10
2018-09-04T06:33:41.009Z,90.10
2018-09-04T06:36:10.761Z,90.20
2018-09-04T06:38:40.662Z,90.20
2018-09-04T06:41:10.417Z,90.20
2018-09-04T06:43:40.196Z,90.30
2018-09-04T06:46:10.012Z,90.40
2018-09-04T06:48:39.871Z,90.30
2018-09-04T06:51:09.674Z,90.60
2018-09-04T06:53:39.419Z,90.30
2018-09-04T06:56:09.261Z,90.40
2018-09-04T06:58:39.039Z,90.40
2018-09-04T07:01:08.761Z,90.40
2018-09-04T07:03:38.608Z,90.40
2018-09-04T07:06:08.440Z,90.50
2018-09-04T07:08:38.065Z,90.50
2018-09-04T07:11:07.804Z,90.60
2018-09-04T07:13:37.761Z,90.60
2018-09-04T07:16:07.528Z,90.50
2018-09-04T07:18:37.239Z,90.50
2018-09-04T07:21:07.057Z,90.60
2018-09-04T07:23:36.724Z,90.50
2018-09-04T07:26:06.605Z,90.50
2018-09-04T07:28:36.364Z,90.60
2018-09-04T07:31:06.124Z,90.50
2018-09-04T07:33:35.910Z,90.40
2018-09-04T07:36:06.123Z,90.40
2018-09-04T07:38:35.940Z,90.30
2018-09-04T07:41:06.049Z,90.30
2018-09-04T07:43:35.905Z,90.30
2018-09-04T07:46:05.901Z,90.20
2018-09-04T07:48:35.629Z,90.10
2018-09-04T07:51:05.564Z,90.00
2018-09-04T07:53:35.382Z,90.00
2018-09-04T07:56:05.498Z,89.90
2018-09-04T07:58:35.255Z,89.90
2018-09-04T08:01:05.224Z,89.70
2018-09-04T08:03:35.090Z,89.40
2018-09-04T08:06:04.878Z,89.60
2018-09-04T08:08:34.715Z,89.40
2018-09-04T08:11:04.621Z,89.40
2018-09-04T08:13:34.344Z,89.40
2018-09-04T08:16:04.234Z,89.40
2018-09-04T08:18:34.086Z,89.30
2018-09-04T08:21:03.938Z,89.30
2018-09-04T08:23:33.712Z,89.20
2018-09-04T08:26:03.611Z,88.90
2018-09-04T08:28:33.335Z,88.70
2018-09-04T08:31:03.177Z,88.40
2018-09-04T08:33:33.015Z,88.50
2018-09-04T08:36:02.779Z,88.40
2018-09-04T08:38:32.701Z,88.50
2018-09-04T08:41:02.475Z,88.30
2018-09-04T08:43:32.230Z,88.10
2018-09-04T08:46:01.980Z,87.90
2018-09-04T08:48:31.718Z,87.90
2018-09-04T08:51:01.478Z,88.00
2018-09-04T08:53:31.275Z,87.70
2018-09-04T08:56:01.173Z,87.20
2018-09-04T08:58:31.073Z,86.80
2018-09-04T09:01:00.953Z,86.20
2018-09-04T09:03:30.982Z,85.80
2018-09-04T09:06:00.784Z,85.10
2018-09-04T09:08:30.611Z,84.80
2018-09-04T09:11:00.431Z,84.40
2018-09-04T09:13:30.271Z,84.30
2018-09-04T09:16:00.009Z,83.50
2018-09-04T09:18:30.176Z,83.20
2018-09-04T09:21:00.066Z,82.80
2018-09-04T09:23:29.830Z,82.40
2018-09-04T09:25:59.615Z,81.90
2018-09-04T09:28:29.608Z,81.60
2018-09-04T09:30:59.388Z,81.00
2018-09-04T09:33:29.413Z,80.10
2018-09-04T09:35:59.219Z,79.60
2018-09-04T09:38:29.154Z,79.70
2018-09-04T09:40:58.860Z,78.30
2018-09-04T09:43:28.710Z,77.90
2018-09-04T09:45:58.424Z,77.80
2018-09-04T09:48:32.233Z,77.60
2018-09-04T09:51:02.024Z,77.10
2018-09-04T09:53:31.929Z,76.70
2018-09-04T09:56:01.536Z,75.80
2018-09-04T09:58:31.321Z,75.90
2018-09-04T10:01:06.127Z,75.70
2018-09-04T10:03:41.030Z,75.50
2018-09-04T10:06:10.743Z,75.10
2018-09-04T10:08:40.520Z,74.30
2018-09-04T10:11:10.235Z,73.70
2018-09-04T10:13:40.035Z,73.40
2018-09-04T10:16:09.761Z,72.70
2018-09-04T10:18:39.545Z,71.90
2018-09-04T10:21:09.460Z,71.20
2018-09-04T10:23:39.339Z,71.00
2018-09-04T10:26:10.094Z,70.60
2018-09-04T10:28:40.019Z,70.60
2018-09-04T10:31:09.809Z,70.00
2018-09-04T10:33:39.803Z,69.80
2018-09-04T10:36:09.559Z,69.30
2018-09-04T10:38:39.291Z,68.90
2018-09-04T10:41:14.960Z,68.40
2018-09-04T10:43:44.709Z,68.00
2018-09-04T10:46:15.480Z,67.70
2018-09-04T10:48:45.281Z,67.80
2018-09-04T10:51:15.130Z,67.50
2018-09-04T10:53:44.991Z,67.40
2018-09-04T10:56:14.981Z,67.00
2018-09-04T10:58:44.805Z,66.70
2018-09-04T11:01:14.555Z,66.20
2018-09-04T11:03:44.320Z,66.00
2018-09-04T11:06:14.039Z,65.40
2018-09-04T11:08:43.753Z,65.50
2018-09-04T11:11:13.509Z,65.50
2018-09-04T11:13:43.298Z,65.10
2018-09-04T11:16:13.052Z,64.50
2018-09-04T11:18:42.863Z,64.30
2018-09-04T11:21:12.664Z,64.10
2018-09-04T11:23:42.694Z,63.70
2018-09-04T11:26:12.625Z,63.70
2018-09-04T11:28:48.541Z,63.30
2018-09-04T11:31:19.101Z,61.80
2018-09-04T11:33:49.859Z,61.10
2018-09-04T11:36:20.839Z,59.90
2018-09-04T11:38:51.249Z,59.30
2018-09-04T11:41:21.310Z,58.90
2018-09-04T11:43:51.143Z,58.80
2018-09-04T11:46:20.872Z,58.80
2018-09-04T11:48:50.666Z,58.30
2018-09-04T11:51:20.768Z,57.30
2018-09-04T11:53:50.596Z,57.40
2018-09-04T11:56:20.689Z,57.10
2018-09-04T11:58:50.519Z,56.90
2018-09-04T12:01:23.146Z,56.60
2018-09-04T12:03:52.896Z,56.00
2018-09-04T12:06:22.666Z,55.80
2018-09-04T12:08:52.641Z,55.30
2018-09-04T12:11:22.467Z,54.70
2018-09-04T12:13:52.413Z,54.80
2018-09-04T12:16:22.204Z,54.90
2018-09-04T12:18:52.440Z,54.10
2018-09-04T12:21:22.189Z,53.70
2018-09-04T12:23:51.882Z,53.80
2018-09-04T12:26:21.608Z,53.70
2018-09-04T12:28:51.360Z,53.60
2018-09-04T12:31:21.158Z,53.50
2018-09-04T12:33:51.163Z,53.30
2018-09-04T12:36:21.148Z,53.20
2018-09-04T12:38:50.879Z,53.20
2018-09-04T12:41:20.617Z,53.40
2018-09-04T12:43:50.361Z,53.20
2018-09-04T12:46:20.795Z,53.20
2018-09-04T12:48:51.800Z,53.00
2018-09-04T12:51:21.556Z,53.00
2018-09-04T12:53:51.378Z,52.60
2018-09-04T12:56:21.217Z,52.40
2018-09-04T12:58:50.921Z,52.70
2018-09-04T13:01:20.648Z,52.80
2018-09-04T13:03:50.356Z,52.70
2018-09-04T13:06:20.121Z,52.50
2018-09-04T13:08:49.905Z,52.40
2018-09-04T13:11:19.682Z,52.10
2018-09-04T13:13:49.538Z,51.80
2018-09-04T13:16:19.248Z,51.90
2018-09-04T13:18:49.097Z,51.80
2018-09-04T13:21:22.194Z,51.70
2018-09-04T13:23:51.879Z,51.20
2018-09-04T13:26:21.645Z,51.10
2018-09-04T13:28:51.685Z,51.00
2018-09-04T13:31:21.475Z,51.00
2018-09-04T13:33:51.309Z,50.20
2018-09-04T13:36:21.077Z,49.40
2018-09-04T13:38:50.780Z,49.10
2018-09-04T13:41:20.464Z,49.00
2018-09-04T13:43:50.275Z,48.90
2018-09-04T13:46:20.030Z,48.70
2018-09-04T13:48:49.790Z,48.80
2018-09-04T13:51:19.592Z,48.60
2018-09-04T13:53:49.288Z,48.60
2018-09-04T13:56:18.994Z,49.00
2018-09-04T13:58:48.736Z,48.60
2018-09-04T14:01:18.428Z,48.40
2018-09-04T14:03:48.136Z,48.70
2018-09-04T14:06:17.835Z,48.40
2018-09-04T14:08:47.570Z,48.00
2018-09-04T14:11:17.426Z,47.60
2018-09-04T14:13:47.592Z,47.80
2018-09-04T14:16:19.458Z,47.80
2018-09-04T14:18:49.137Z,48.00
2018-09-04T14:21:18.866Z,48.00
2018-09-04T14:23:48.739Z,48.00
2018-09-04T14:26:18.459Z,47.80
2018-09-04T14:29:06.431Z,47.40
2018-09-04T14:31:18.177Z,47.10
2018-09-04T14:33:47.881Z,46.80
2018-09-04T14:36:17.662Z,46.70
2018-09-04T14:38:47.423Z,46.60
2018-09-04T15:14:49.332Z,45.90
2018-09-04T15:17:19.424Z,45.80
2018-09-04T15:19:49.123Z,45.50
2018-09-04T15:22:18.901Z,45.50
2018-09-04T15:24:48.576Z,45.20
2018-09-04T15:27:18.521Z,44.90
2018-09-04T15:29:48.184Z,45.20
2018-09-04T15:32:17.836Z,45.50
2018-09-04T15:34:47.509Z,45.70
2018-09-04T15:37:17.131Z,45.50
2018-09-04T15:39:46.841Z,45.50
2018-09-04T15:42:16.752Z,45.10
2018-09-04T15:44:46.365Z,44.90
2018-09-04T15:47:16.034Z,45.00
2018-09-04T15:49:46.964Z,44.60
2018-09-04T15:52:17.369Z,44.70
2018-09-04T15:54:46.984Z,44.70
2018-09-04T15:57:16.696Z,44.30
2018-09-04T15:59:46.384Z,44.40
2018-09-04T16:02:16.044Z,44.40
2018-09-04T16:04:45.686Z,44.60
2018-09-04T16:07:15.376Z,44.60
2018-09-04T16:09:45.156Z,44.80
2018-09-04T16:12:14.836Z,45.20
2018-09-04T16:14:44.523Z,45.60
2018-09-04T16:17:14.498Z,46.20
2018-09-04T16:19:44.097Z,46.70
2018-09-04T16:22:13.740Z,47.10
2018-09-04T16:24:43.487Z,47.20
2018-09-04T16:27:18.420Z,47.10
2018-09-04T16:30:16.329Z,47.30
2018-09-04T16:32:48.320Z,47.30
2018-09-04T16:35:24.638Z,47.40
2018-09-04T16:37:55.829Z,47.60
2018-09-04T16:40:27.640Z,47.70
2018-09-04T16:43:00.844Z,47.80
2018-09-04T16:45:39.378Z,47.90
2018-09-04T16:48:13.023Z,48.10
2018-09-04T16:51:02.477Z,48.30
2018-09-04T16:53:40.339Z,48.40
2018-09-04T16:56:14.743Z,48.40
2018-09-04T16:58:56.296Z,48.60
2018-09-04T17:01:30.915Z,49.00
2018-09-04T17:04:04.169Z,49.20
2018-09-04T17:06:48.789Z,49.50
2018-09-04T17:12:41.366Z,49.80
2018-09-04T17:15:24.562Z,50.00
2018-09-04T17:18:32.419Z,50.10
2018-09-04T17:21:29.731Z,50.20
2018-09-04T17:24:03.066Z,50.40
2018-09-04T17:27:07.192Z,50.60
2018-09-04T17:29:42.670Z,50.80
2018-09-04T17:32:18.193Z,50.90
2018-09-04T17:34:51.303Z,51.10
2018-09-04T17:37:31.427Z,51.20
2018-09-04T17:40:03.531Z,51.40
2018-09-04T17:42:44.030Z,51.40
2018-09-04T17:45:20.215Z,51.40
2018-09-04T17:47:54.397Z,51.30
2018-09-04T17:50:31.942Z,51.10
2018-09-04T17:53:38.507Z,51.00
2018-09-04T17:56:24.511Z,51.10
2018-09-04T17:59:14.708Z,51.20
2018-09-04T18:01:47.155Z,51.30
2018-09-04T18:04:22.750Z,51.40
2018-09-04T18:10:27.753Z,51.70
2018-09-04T18:13:08.043Z,51.80
2018-09-04T18:15:56.880Z,52.00
2018-09-04T18:18:35.843Z,52.20
2018-09-04T18:21:09.909Z,52.40
2018-09-04T18:23:39.690Z,52.60
2018-09-04T18:26:09.278Z,52.80
2018-09-04T18:28:39.259Z,53.10
2018-09-04T18:31:09.021Z,53.30
2018-09-04T18:33:38.761Z,53.50
2018-09-04T18:36:08.693Z,53.70
2018-09-04T18:38:38.481Z,54.00
2018-09-04T18:41:09.094Z,54.10
2018-09-04T18:43:38.813Z,54.30
2018-09-04T18:46:08.603Z,54.50
2018-09-04T18:48:38.281Z,54.70
2018-09-04T18:51:08.038Z,55.00
2018-09-04T18:53:37.762Z,55.20
2018-09-04T18:56:07.506Z,55.50
2018-09-04T18:58:37.171Z,55.70
2018-09-04T19:01:06.900Z,55.80
2018-09-04T19:03:36.623Z,56.10
2018-09-04T19:06:06.338Z,56.60
2018-09-04T19:08:36.063Z,55.90
2018-09-04T19:11:05.900Z,55.80
2018-09-04T19:13:35.623Z,55.90
2018-09-04T19:16:05.520Z,56.00
2018-09-04T19:18:35.186Z,56.10
2018-09-04T19:21:04.966Z,56.20
2018-09-04T19:23:35.300Z,56.30
2018-09-04T19:26:08.885Z,56.50
2018-09-04T19:28:38.585Z,56.60
2018-09-04T19:31:08.406Z,56.80
2018-09-04T19:33:38.153Z,57.00
2018-09-04T19:36:08.193Z,57.10
2018-09-04T19:38:38.005Z,57.10
2018-09-04T19:41:09.422Z,57.10
2018-09-04T19:43:40.604Z,57.20
2018-09-04T19:46:13.094Z,57.30
2018-09-04T19:48:43.370Z,57.20
2018-09-04T19:51:13.862Z,57.30
2018-09-04T19:53:43.825Z,57.40
2018-09-04T19:56:13.650Z,57.40
2018-09-04T19:58:43.742Z,57.50
2018-09-04T20:01:13.517Z,57.60
2018-09-04T20:03:43.250Z,57.60
2018-09-04T20:06:14.386Z,57.80
2018-09-04T20:08:44.722Z,57.80
2018-09-04T20:11:15.774Z,57.80
2018-09-04T20:13:45.830Z,58.00
2018-09-04T20:16:15.829Z,58.10
2018-09-04T20:18:45.597Z,58.20
2018-09-04T20:21:15.364Z,58.40
2018-09-04T20:23:45.113Z,58.50
2018-09-04T20:26:15.143Z,58.60
2018-09-04T20:28:45.185Z,58.70
2018-09-04T20:31:15.041Z,58.80
2018-09-04T20:33:45.734Z,59.00
2018-09-04T20:36:15.618Z,59.00
2018-09-04T20:38:45.717Z,59.20
2018-09-04T20:41:15.541Z,59.20
2018-09-04T20:43:45.832Z,59.40
2018-09-04T20:46:15.790Z,59.50
2018-09-04T20:48:45.825Z,59.60
2018-09-04T20:51:15.946Z,59.80
2018-09-04T20:53:45.820Z,59.80
2018-09-04T20:56:15.477Z,59.90
2018-09-04T20:59:01.776Z,60.10
2018-09-04T21:01:48.180Z,60.20
2018-09-04T21:04:35.106Z,60.30
2018-09-04T21:07:02.961Z,60.30
2018-09-04T21:09:42.764Z,60.40
2018-09-04T21:12:21.639Z,60.70
2018-09-04T21:14:52.129Z,60.90
2018-09-04T21:17:21.912Z,61.10
2018-09-04T21:19:51.927Z,61.20
2018-09-04T21:22:22.833Z,61.30
2018-09-04T21:24:53.087Z,61.30
2018-09-04T21:27:24.144Z,61.40
2018-09-04T21:30:04.964Z,61.40
2018-09-04T21:32:43.625Z,61.50
2018-09-04T21:35:20.773Z,61.70
2018-09-04T21:37:58.697Z,62.10
2018-09-04T21:40:37.546Z,62.10
2018-09-04T21:43:14.558Z,62.40
2018-09-04T21:45:50.412Z,62.70
2018-09-04T21:48:26.185Z,62.80
2018-09-04T21:51:02.863Z,63.10
2018-09-04T21:53:36.980Z,63.50
2018-09-04T21:56:12.881Z,63.40
2018-09-04T21:58:46.835Z,63.40
2018-09-04T22:01:24.209Z,63.60
2018-09-04T22:04:02.455Z,63.90
2018-09-04T22:06:39.958Z,63.90
2018-09-04T22:09:18.936Z,64.10
2018-09-04T22:11:57.165Z,64.50
2018-09-04T22:14:34.809Z,64.60
2018-09-04T22:17:15.609Z,64.70
2018-09-04T22:19:53.473Z,64.70
2018-09-04T22:22:32.284Z,64.70
2018-09-04T22:25:07.831Z,64.70
2018-09-04T22:27:44.935Z,65.20
2018-09-04T22:30:25.033Z,65.20
2018-09-04T22:33:03.106Z,65.50
2018-09-04T22:35:41.159Z,65.50
2018-09-04T22:38:17.788Z,65.80
2018-09-04T22:40:57.374Z,65.70
2018-09-04T22:43:37.307Z,66.10
2018-09-04T22:46:13.601Z,65.70
2018-09-04T22:48:51.640Z,66.00
2018-09-04T22:51:38.126Z,66.10
2018-09-04T22:54:17.693Z,66.00
2018-09-04T22:56:55.660Z,66.00
2018-09-04T22:59:35.280Z,66.10
2018-09-04T23:02:12.250Z,66.30
2018-09-04T23:04:49.226Z,66.50
2018-09-04T23:07:28.265Z,66.60
2018-09-04T23:10:05.117Z,66.80
2018-09-04T23:12:43.961Z,66.70
2018-09-04T23:15:22.297Z,66.60
2018-09-04T23:17:59.050Z,66.50
2018-09-04T23:20:37.433Z,66.50
2018-09-04T23:23:15.505Z,66.50
2018-09-04T23:25:53.144Z,66.30
2018-09-04T23:28:30.147Z,66.50
2018-09-04T23:31:08.469Z,66.70
2018-09-04T23:33:47.600Z,66.80
2018-09-04T23:59:34.604Z,67.20
